createdAt,value
2019-03-22T00:00:46.632Z,38.17
2019-03-22T00:05:53.372Z,38.80
2019-03-22T00:11:00.005Z,37.70
2019-03-22T00:16:06.834Z,36.97
2019-03-22T00:21:13.474Z,36.33
2019-03-22T00:26:20.097Z,36.77
2019-03-22T00:31:26.761Z,37.27
2019-03-22T00:36:33.383Z,37.53
2019-03-22T00:41:40.202Z,39.27
2019-03-22T00:46:46.883Z,39.07
2019-03-22T00:51:53.484Z,38.87
2019-03-22T00:57:00.146Z,38.57
2019-03-22T01:02:06.830Z,40.33
2019-03-22T01:07:13.443Z,37.67
2019-03-22T01:12:20.234Z,38.40
2019-03-22T01:17:26.929Z,37.67
2019-03-22T01:22:33.545Z,38.17
2019-03-22T01:27:41.274Z,38.00
2019-03-22T01:32:48.302Z,38.10
2019-03-22T01:37:54.873Z,39.30
2019-03-22T01:43:01.519Z,39.97
2019-03-22T01:48:08.304Z,39.27
2019-03-22T01:53:14.985Z,40.47
2019-03-22T01:58:21.642Z,39.67
2019-03-22T02:03:28.256Z,41.00
2019-03-22T02:08:34.902Z,43.17
2019-03-22T02:13:41.470Z,45.60
2019-03-22T02:18:48.185Z,50.13
2019-03-22T02:23:54.770Z,52.93
2019-03-22T02:29:01.316Z,49.67
2019-03-22T02:34:08.123Z,45.50
2019-03-22T02:39:15.253Z,49.33
2019-03-22T02:44:22.058Z,50.53
2019-03-22T02:49:28.671Z,46.33
2019-03-22T02:54:35.394Z,45.07
2019-03-22T02:59:42.061Z,46.17
2019-03-22T03:04:48.770Z,46.83
2019-03-22T03:09:55.589Z,47.10
2019-03-22T03:15:02.269Z,46.37
2019-03-22T03:20:11.431Z,48.53
2019-03-22T03:25:18.266Z,47.90
2019-03-22T03:30:24.904Z,46.67
2019-03-22T03:35:31.448Z,48.90
2019-03-22T03:40:38.387Z,49.73
2019-03-22T03:45:45.094Z,52.23
2019-03-22T03:50:51.803Z,48.43
2019-03-22T03:55:58.599Z,50.73
2019-03-22T04:01:05.237Z,52.90
2019-03-22T04:06:11.856Z,50.57
2019-03-22T04:11:18.483Z,49.63
2019-03-22T04:16:25.128Z,52.40
2019-03-22T04:21:31.770Z,52.73
2019-03-22T04:26:38.290Z,50.73
2019-03-22T04:31:44.899Z,49.77
2019-03-22T04:36:51.654Z,50.37
2019-03-22T04:41:58.291Z,49.47
2019-03-22T04:47:06.017Z,53.43
2019-03-22T04:52:12.901Z,51.40
2019-03-22T04:57:20.403Z,48.53
2019-03-22T05:02:27.924Z,48.53
2019-03-22T05:07:35.331Z,52.00
2019-03-22T05:12:43.881Z,48.90
2019-03-22T05:17:50.594Z,48.30
2019-03-22T05:22:57.757Z,46.30
2019-03-22T05:28:08.832Z,39.90
2019-03-22T05:33:17.831Z,38.93
2019-03-22T05:38:24.415Z,38.13
2019-03-22T05:43:31.035Z,37.40
2019-03-22T05:48:37.718Z,35.83
2019-03-22T05:53:44.467Z,33.50
2019-03-22T05:58:51.019Z,35.23
2019-03-22T06:03:57.633Z,32.37
2019-03-22T06:09:05.389Z,33.17
2019-03-22T06:14:12.081Z,32.13
2019-03-22T06:19:18.775Z,32.23
2019-03-22T06:24:25.503Z,32.00
2019-03-22T06:29:32.067Z,32.57
2019-03-22T06:34:38.693Z,31.37
2019-03-22T06:39:45.381Z,32.47
2019-03-22T06:44:52.084Z,31.27
2019-03-22T06:49:59.824Z,34.47
2019-03-22T06:55:08.848Z,32.63
2019-03-22T07:00:15.697Z,31.77
2019-03-22T07:05:22.391Z,31.43
2019-03-22T07:10:29.053Z,32.23
2019-03-22T07:15:35.773Z,30.03
2019-03-22T07:20:42.548Z,29.30
2019-03-22T07:25:49.248Z,30.73
2019-03-22T07:30:55.888Z,31.30
2019-03-22T07:36:02.593Z,32.60
2019-03-22T07:41:09.206Z,36.90
2019-03-22T07:46:15.887Z,34.10
2019-03-22T07:51:22.483Z,33.60
2019-03-22T07:56:29.120Z,36.10
2019-03-22T08:01:35.810Z,35.33
2019-03-22T08:06:42.441Z,34.67
2019-03-22T08:11:49.128Z,36.03
2019-03-22T08:16:55.799Z,39.13
2019-03-22T08:22:02.393Z,41.13
2019-03-22T08:27:09.047Z,39.73
2019-03-22T08:32:15.789Z,44.00
2019-03-22T08:37:22.342Z,47.43
2019-03-22T08:42:29.144Z,44.90
2019-03-22T08:47:35.960Z,46.53
2019-03-22T08:52:42.757Z,49.50
2019-03-22T08:57:49.591Z,49.33
2019-03-22T09:02:56.355Z,50.37
2019-03-22T09:08:03.147Z,49.87
2019-03-22T09:13:09.841Z,51.00
2019-03-22T09:18:16.839Z,53.07
2019-03-22T09:23:23.481Z,55.57
2019-03-22T09:28:30.118Z,55.57
2019-03-22T09:33:36.767Z,57.33
2019-03-22T09:38:43.483Z,55.97
2019-03-22T09:43:50.187Z,59.83
2019-03-22T09:48:57.046Z,60.77
2019-03-22T09:54:03.609Z,61.10
2019-03-22T09:59:10.385Z,63.20
2019-03-22T10:04:17.267Z,62.63
2019-03-22T10:09:23.936Z,62.50
2019-03-22T10:14:31.491Z,63.43
2019-03-22T10:19:38.375Z,61.40
2019-03-22T10:24:44.975Z,60.13
2019-03-22T10:29:51.708Z,57.33
2019-03-22T10:35:03.003Z,58.17
2019-03-22T10:40:11.803Z,58.73
2019-03-22T10:45:18.397Z,57.73
2019-03-22T10:50:25.115Z,57.37
2019-03-22T10:55:31.822Z,58.63
2019-03-22T11:00:38.535Z,57.70
2019-03-22T11:05:45.281Z,57.27
2019-03-22T11:10:52.022Z,61.67
2019-03-22T11:15:58.806Z,57.87
2019-03-22T11:21:05.803Z,59.73
2019-03-22T11:26:12.698Z,60.83
2019-03-22T11:31:27.428Z,62.00
2019-03-22T11:36:27.946Z,58.43
2019-03-22T11:41:34.886Z,60.00
2019-03-22T11:46:41.603Z,61.67
2019-03-22T11:51:48.230Z,57.50
2019-03-22T11:56:55.110Z,52.73
2019-03-22T12:02:01.992Z,51.90
2019-03-22T12:07:09.764Z,47.50
2019-03-22T12:12:16.495Z,48.97
2019-03-22T12:17:23.171Z,47.97
2019-03-22T12:22:29.951Z,47.93
2019-03-22T12:27:37.010Z,44.73
2019-03-22T12:32:43.724Z,46.70
2019-03-22T12:37:50.430Z,45.83
2019-03-22T12:42:57.110Z,44.40
2019-03-22T12:48:04.015Z,40.83
2019-03-22T12:53:10.773Z,44.00
2019-03-22T12:58:17.579Z,42.27
2019-03-22T13:03:24.466Z,40.37
2019-03-22T13:08:31.307Z,40.23
2019-03-22T13:13:37.998Z,40.47
2019-03-22T13:18:50.180Z,40.77
2019-03-22T13:23:52.883Z,40.05
2019-03-22T13:28:59.617Z,38.65
2019-03-22T13:34:06.247Z,38.23
2019-03-22T13:39:12.969Z,36.48
2019-03-22T13:44:20.273Z,32.23
2019-03-22T13:49:30.439Z,32.43
2019-03-22T13:54:37.091Z,30.27
2019-03-22T13:59:43.785Z,30.15
2019-03-22T14:04:50.513Z,30.90
2019-03-22T14:09:57.385Z,34.00
2019-03-22T14:15:04.667Z,31.60
2019-03-22T14:20:12.326Z,28.73
2019-03-22T14:25:18.999Z,31.90
2019-03-22T14:30:25.979Z,33.00
2019-03-22T14:35:32.761Z,28.23
2019-03-22T14:40:39.603Z,30.88
2019-03-22T14:45:46.518Z,28.15
2019-03-22T14:50:53.350Z,123.95
2019-03-22T14:56:00.077Z,38.30
2019-03-22T15:01:06.944Z,63.87
2019-03-22T15:06:13.822Z,34.25
2019-03-22T15:11:20.657Z,50.63
2019-03-22T15:17:04.368Z,50.38
2019-03-22T15:22:36.211Z,39.63
2019-03-22T15:27:54.458Z,31.90
2019-03-22T15:33:33.972Z,26.80
2019-03-22T15:38:43.127Z,30.62
2019-03-22T15:43:49.976Z,30.10
2019-03-22T15:54:35.017Z,28.30
2019-03-22T15:59:41.886Z,28.02
2019-03-22T16:04:48.643Z,35.33
2019-03-22T16:09:55.337Z,45.28
2019-03-22T16:15:02.029Z,47.05
2019-03-22T16:20:09.430Z,46.33
2019-03-22T16:25:16.267Z,47.48
2019-03-22T16:30:23.039Z,48.40
2019-03-22T16:35:29.598Z,49.88
2019-03-22T16:40:37.624Z,49.03
2019-03-22T16:45:44.494Z,51.05
2019-03-22T16:50:51.209Z,50.50
2019-03-22T16:55:57.908Z,52.43
2019-03-22T17:01:06.041Z,51.02
2019-03-22T17:06:12.678Z,53.55
2019-03-22T17:11:19.321Z,55.67
2019-03-22T17:16:25.987Z,55.95
2019-03-22T17:21:32.692Z,54.80
2019-03-22T17:26:39.612Z,55.33
2019-03-22T17:31:46.303Z,55.23
2019-03-22T17:36:52.975Z,54.00
2019-03-22T17:41:59.658Z,54.17
2019-03-22T17:47:06.292Z,52.37
2019-03-22T17:52:12.879Z,51.57
2019-03-22T17:57:19.421Z,49.67
2019-03-22T18:02:26.137Z,52.17
2019-03-22T18:07:32.786Z,49.87
2019-03-22T18:12:39.539Z,54.03
2019-03-22T18:17:46.087Z,49.77
2019-03-22T18:22:53.055Z,51.40
2019-03-22T18:27:59.613Z,50.70
2019-03-22T18:33:06.305Z,50.47
2019-03-22T18:38:13.098Z,50.30
2019-03-22T18:43:19.941Z,51.03
2019-03-22T18:48:26.574Z,52.17
2019-03-22T18:53:33.067Z,55.03
2019-03-22T18:58:39.743Z,55.67
2019-03-22T19:03:46.566Z,54.20
2019-03-22T19:08:53.402Z,56.50
2019-03-22T19:14:01.833Z,57.20
2019-03-22T19:19:10.900Z,57.07
2019-03-22T19:24:17.555Z,56.67
2019-03-22T19:29:24.249Z,58.33
2019-03-22T19:34:31.043Z,60.00
2019-03-22T19:39:37.994Z,61.30
2019-03-22T19:44:44.710Z,61.20
2019-03-22T19:49:51.408Z,62.63
2019-03-22T19:54:58.125Z,60.33
2019-03-22T20:00:05.763Z,58.30
2019-03-22T20:05:13.430Z,58.63
2019-03-22T20:10:19.989Z,63.53
2019-03-22T20:15:26.879Z,56.60
2019-03-22T20:20:33.606Z,57.53
2019-03-22T20:25:40.179Z,57.47
2019-03-22T20:30:47.286Z,57.00
2019-03-22T20:35:54.170Z,56.17
2019-03-22T20:41:00.981Z,53.10
2019-03-22T20:46:07.613Z,52.63
2019-03-22T20:51:15.292Z,59.73
2019-03-22T20:56:22.227Z,56.77
2019-03-22T21:01:28.739Z,56.67
2019-03-22T21:06:35.570Z,55.47
2019-03-22T21:11:42.208Z,59.07
2019-03-22T21:16:48.914Z,55.47
2019-03-22T21:21:55.660Z,57.17
2019-03-22T21:27:02.525Z,59.87
2019-03-22T21:32:09.165Z,57.90
2019-03-22T21:37:15.673Z,59.07
2019-03-22T21:42:22.243Z,58.53
2019-03-22T21:47:28.809Z,58.10
2019-03-22T21:52:35.390Z,55.73
2019-03-22T21:57:41.999Z,55.97
2019-03-22T22:02:48.470Z,56.37
2019-03-22T22:07:55.140Z,56.67
2019-03-22T22:13:01.687Z,59.47
2019-03-22T22:18:08.327Z,57.60
2019-03-22T22:23:14.827Z,55.17
2019-03-22T22:28:21.459Z,54.43
2019-03-22T22:33:28.148Z,54.63
2019-03-22T22:38:34.730Z,57.43
2019-03-22T22:43:41.339Z,56.57
2019-03-22T22:48:47.854Z,55.83
2019-03-22T22:53:54.503Z,56.33
2019-03-22T22:59:00.926Z,53.57
2019-03-22T23:04:07.401Z,53.47
2019-03-22T23:09:13.998Z,51.97
2019-03-22T23:14:20.506Z,52.13
2019-03-22T23:19:26.973Z,51.80
2019-03-22T23:24:33.529Z,51.63
2019-03-22T23:29:40.110Z,51.47
2019-03-22T23:34:46.580Z,52.77
2019-03-22T23:39:53.139Z,51.07
2019-03-22T23:44:59.722Z,50.93
2019-03-22T23:50:06.705Z,51.13
2019-03-22T23:55:14.390Z,49.63
